• Join FlightAware (Why Join?)
  • Login
  • US Flag 
09:25AM EST


 

Airport Tracker/Info


-or-


 

Live Flight TrackerFlight Track Log ✈ DAL6234 ✈ 07-Jul-2013 ✈ KLGA - KSYR

Flight Track Log - Related Links

Times and Time Zones

All times are in EDT time to prevent confusion due to time zone crossing. See the DAL6234 flight status page for this flight to view local times or setup timezone preferences in your user account.

Time Position Orientation Groundspeed Altitude Reporting Facility
EDT Latitude Longitude Course Direction KTS MPH feet Rate Location/Type
04:19PM 42.9684 -75.9636 325° Northwest  Level Estimated
04:20PM 42.9711 -75.9663 324° Northwest  Level Estimated
04:21PM 42.9739 -75.9690 324° Northwest  Level Estimated
04:22PM 42.9766 -75.9717 324° Northwest  Level Estimated
04:23PM 42.9793 -75.9744 324° Northwest  Level Estimated
04:24PM 42.9820 -75.9772 324° Northwest  Level Estimated
04:25PM 42.9847 -75.9799 324° Northwest  Level Estimated
04:26PM 42.9875 -75.9826 324° Northwest  Level Estimated
04:27PM 42.9902 -75.9853 324° Northwest  Level Estimated
04:28PM 42.9929 -75.9880 324° Northwest  Level Estimated
04:29PM 42.9956 -75.9907 324° Northwest  Level Estimated
04:30PM 42.9983 -75.9934 324° Northwest  Level Estimated
04:31PM 43.0011 -75.9961 324° Northwest  Level Estimated
04:32PM 43.0038 -75.9988 324° Northwest  Level Estimated
04:33PM 43.0065 -76.0015 324° Northwest  Level Estimated
04:34PM 43.0092 -76.0043 324° Northwest  Level Estimated
04:35PM 43.0119 -76.0070 324° Northwest  Level Estimated
04:36PM 43.0146 -76.0097 324° Northwest  Level Estimated
04:37PM 43.0173 -76.0124 324° Northwest  Level Estimated
04:38PM 43.0200 -76.0151 324° Northwest  Level Estimated
04:39PM 43.0228 -76.0178 324° Northwest  Level Estimated
04:40PM 43.0255 -76.0205 324° Northwest  Level Estimated
04:41PM 43.0282 -76.0232 324° Northwest  Level Estimated
04:42PM 43.0309 -76.0259 324° Northwest  Level Estimated
04:43PM 43.0336 -76.0286 324° Northwest  Level Estimated
04:44PM 43.0363 -76.0314 324° Northwest  Level Estimated
04:45PM 43.0390 -76.0341 324° Northwest  Level Estimated
04:46PM 43.0417 -76.0368 324° Northwest  Level Estimated
04:47PM 43.0444 -76.0395 324° Northwest  Level Estimated
04:48PM 43.0471 -76.0422 324° Northwest  Level Estimated
04:49PM 43.0499 -76.0449 324° Northwest  Level Estimated
04:50PM 43.0526 -76.0476 324° Northwest  Level Estimated
04:51PM 43.0553 -76.0503 324° Northwest  Level Estimated
04:52PM 43.0580 -76.0530 324° Northwest  Level Estimated
04:53PM 43.0607 -76.0557 324° Northwest  Level Estimated
04:54PM 43.0634 -76.0585 324° Northwest  Level Estimated
04:55PM 43.0661 -76.0612 324° Northwest  Level Estimated
04:56PM 43.0688 -76.0639 324° Northwest  Level Estimated
04:57PM 43.0715 -76.0666 324° Northwest  Level Estimated
04:58PM 43.0742 -76.0693 324° Northwest  Level Estimated
04:59PM 43.0770 -76.0720 324° Northwest  Level Estimated
05:00PM 43.0797 -76.0747 324° Northwest  Level Estimated
05:01PM 43.0824 -76.0775 324° Northwest  Level Estimated
05:02PM 43.0851 -76.0802 324° Northwest  Level Estimated
05:03PM 43.0878 -76.0829 324° Northwest  Level Estimated
05:04PM 43.0905 -76.0856 324° Northwest  Level Estimated
05:05PM 43.0932 -76.0883 324° Northwest  Level Estimated
05:06PM 43.0959 -76.0910 324° Northwest  Level Estimated
05:07PM 43.0986 -76.0937 324° Northwest  Level Estimated
05:08PM 43.1013 -76.0965 324° Northwest  Level Estimated
05:09PM 43.1040 -76.0992 324° Northwest  Level Estimated
05:10PM 43.1068 -76.1019 324° Northwest  Level Estimated
05:11PM 43.1095 -76.1046 324° Northwest  Level Estimated
05:12PM 43.1112 -76.1063 324° Northwest  Level Estimated
05:13PM 43.1112 -76.1063 36° Northeast  Level Estimated
05:14PM 43.1112 -76.1063 36° Northeast  Level Estimated
05:15PM 43.1112 -76.1063 36° Northeast  Level Estimated
05:16PM 43.1112 -76.1063 36° Northeast  Level Estimated
05:17PM 43.1112 -76.1063 36° Northeast  Level Estimated
05:18PM 43.1112 -76.1063 36° Northeast  Level Estimated
05:19PM 43.1112 -76.1063 36° Northeast  Level Estimated
05:20PM 43.1112 -76.1063 36° Northeast  Level Estimated
05:21PM 43.1112 -76.1063 36° Northeast  Level Estimated
05:22PM 43.1112 -76.1063 36° Northeast  Level Estimated
05:23PM 43.1112 -76.1063 36° Northeast  Level Estimated
05:24PM 43.1112 -76.1063 36° Northeast  Level Estimated
05:25PM 43.1112 -76.1063 36° Northeast  Level Estimated
05:26PM 43.1112 -76.1063 36° Northeast  Level Estimated
05:27PM 43.1112 -76.1063 36° Northeast  Level Estimated